Time;durP1;ratioP1;P1;durP2;ratioP2;P2;SDS_P1;SDS_P2;PMS_P1;PMS_P2;Temp;Humidity;BMP_temperature;BMP_pressure;BME280_temperature;BME280_humidity;BME280_pressure;Samples;Min_cycle;Max_cycle;Signal;HPM_P1;HPM_P2
2023/07/23 00:01:19;;;;;;;9.18;7.80;;;;;;;14.78;100.00;100757.56;5007427;28;20025;-62
2023/07/23 00:03:44;;;;;;;8.25;7.43;;;;;;;14.77;100.00;100755.78;5007747;28;20572;-61
2023/07/23 00:06:10;;;;;;;8.93;7.53;;;;;;;14.76;100.00;100754.94;5006497;28;20026;-61
2023/07/23 00:08:35;;;;;;;9.50;8.18;;;;;;;14.76;100.00;100748.84;5007720;28;20108;-62
2023/07/23 00:11:01;;;;;;;9.82;7.63;;;;;;;14.77;100.00;100745.34;5007018;28;20470;-61
2023/07/23 00:13:26;;;;;;;10.70;8.35;;;;;;;14.76;100.00;100738.41;5006607;28;20018;-62
2023/07/23 00:15:52;;;;;;;9.40;7.45;;;;;;;14.75;100.00;100747.09;5005506;28;20030;-62
2023/07/23 00:18:17;;;;;;;9.13;8.23;;;;;;;14.75;100.00;100736.66;5007391;28;20105;-61
2023/07/23 00:20:42;;;;;;;8.82;7.90;;;;;;;14.73;100.00;100728.78;5003325;28;20032;-61
2023/07/23 00:23:07;;;;;;;9.57;8.32;;;;;;;14.73;100.00;100733.16;4994796;28;20109;-61
2023/07/23 00:25:33;;;;;;;9.52;8.52;;;;;;;14.69;100.00;100721.81;4999098;28;20076;-61
2023/07/23 00:27:58;;;;;;;10.70;7.38;;;;;;;14.70;100.00;100723.53;4990525;28;20025;-61
2023/07/23 00:30:24;;;;;;;10.65;7.78;;;;;;;14.72;100.00;100710.53;4988387;28;20053;-61
2023/07/23 00:32:49;;;;;;;9.45;7.78;;;;;;;14.74;100.00;100704.47;4987753;28;20021;-62
2023/07/23 00:35:14;;;;;;;8.57;7.60;;;;;;;14.74;100.00;100701.88;5000534;28;20471;-62
2023/07/23 00:37:40;;;;;;;8.35;7.47;;;;;;;14.73;100.00;100700.09;4988319;28;20045;-61
2023/07/23 00:40:06;;;;;;;8.57;7.20;;;;;;;14.72;100.00;100690.53;4988525;28;20073;-62
2023/07/23 00:42:31;;;;;;;9.70;8.15;;;;;;;14.70;100.00;100689.66;4988161;28;20034;-62
2023/07/23 00:44:56;;;;;;;7.53;6.72;;;;;;;14.72;100.00;100689.66;4987597;28;20426;-62
2023/07/23 00:47:23;;;;;;;9.40;6.95;;;;;;;14.71;100.00;100686.19;4988295;28;20046;-62
2023/07/23 00:49:50;;;;;;;9.02;6.57;;;;;;;14.71;100.00;100680.97;4988090;28;20097;-61
2023/07/23 00:52:15;;;;;;;9.30;7.25;;;;;;;14.71;100.00;100677.50;5004097;28;20033;-61
2023/07/23 00:54:41;;;;;;;9.80;6.45;;;;;;;14.68;100.00;100672.25;5009443;28;20040;-61
2023/07/23 00:57:09;;;;;;;7.70;6.70;;;;;;;14.69;100.00;100672.25;5009374;28;20128;-61
2023/07/23 00:59:35;;;;;;;9.68;6.78;;;;;;;14.68;100.00;100661.81;5010284;28;20100;-62
2023/07/23 01:02:01;;;;;;;7.50;6.72;;;;;;;14.65;100.00;100663.53;5009744;28;20433;-62
2023/07/23 01:04:28;;;;;;;9.32;7.20;;;;;;;14.67;100.00;100649.59;5010484;28;20056;-62
2023/07/23 01:06:55;;;;;;;9.77;7.10;;;;;;;14.67;100.00;100653.09;5010202;28;20470;-62
2023/07/23 01:09:22;;;;;;;9.55;7.15;;;;;;;14.65;100.00;100647.88;5010858;28;20033;-61
2023/07/23 01:11:49;;;;;;;8.43;7.40;;;;;;;14.64;100.00;100635.66;5009501;28;20053;-61
2023/07/23 01:14:14;;;;;;;8.60;7.20;;;;;;;14.65;100.00;100634.84;5010260;28;20064;-62
2023/07/23 01:16:41;;;;;;;7.25;6.55;;;;;;;14.67;100.00;100633.97;5009641;28;20439;-61
2023/07/23 01:19:07;;;;;;;10.38;8.15;;;;;;;14.65;100.00;100637.44;5009391;28;20486;-62
2023/07/23 01:21:32;;;;;;;8.45;6.88;;;;;;;14.64;100.00;100625.25;5009436;28;20076;-61
2023/07/23 01:23:57;;;;;;;9.27;7.15;;;;;;;14.65;100.00;100624.41;5009732;28;20026;-62
2023/07/23 01:26:23;;;;;;;7.47;6.65;;;;;;;14.67;100.00;100620.94;5003741;28;20470;-61
2023/07/23 01:28:48;;;;;;;8.73;6.60;;;;;;;14.70;100.00;100620.94;5003698;28;20025;-62
2023/07/23 01:31:13;;;;;;;7.78;6.60;;;;;;;14.68;100.00;100614.88;5003962;28;20030;-62
2023/07/23 01:33:42;;;;;;;6.60;6.00;;;;;;;14.69;100.00;100608.78;5003390;28;20040;-61
2023/07/23 01:36:10;;;;;;;7.82;6.10;;;;;;;14.70;100.00;100602.69;4990793;28;20026;-61
2023/07/23 01:38:35;;;;;;;7.00;6.30;;;;;;;14.69;100.00;100600.97;4991706;28;20525;-62
2023/07/23 01:41:01;;;;;;;6.78;6.18;;;;;;;14.67;100.00;100598.34;5002701;28;20023;-62
2023/07/23 01:43:27;;;;;;;10.68;7.13;;;;;;;14.64;100.00;100593.09;4990585;28;20026;-62
2023/07/23 01:45:53;;;;;;;9.00;6.22;;;;;;;14.63;100.00;100597.44;4990637;28;20141;-62
2023/07/23 01:48:23;;;;;;;7.50;6.63;;;;;;;14.64;100.00;100599.16;4990409;28;20462;-62
2023/07/23 01:50:48;;;;;;;13.50;6.65;;;;;;;14.64;100.00;100593.09;4990676;28;20496;-62
2023/07/23 01:53:14;;;;;;;7.53;6.80;;;;;;;14.61;100.00;100583.50;5001635;28;20116;-61
2023/07/23 01:55:39;;;;;;;8.10;7.30;;;;;;;14.62;100.00;100581.78;5009807;28;20100;-61
2023/07/23 01:58:05;;;;;;;8.98;6.40;;;;;;;14.62;100.00;100580.06;5009991;28;20293;-62
2023/07/23 02:00:30;;;;;;;7.75;6.90;;;;;;;14.61;100.00;100567.84;5010277;28;20064;-61
2023/07/23 02:02:55;;;;;;;8.25;6.55;;;;;;;14.61;100.00;100570.47;4997966;28;20042;-62
2023/07/23 02:05:23;;;;;;;9.35;7.10;;;;;;;14.61;100.00;100567.84;5008008;28;20021;-62
2023/07/23 02:07:49;;;;;;;8.35;7.32;;;;;;;14.61;100.00;100562.63;5010242;28;20032;-61
2023/07/23 02:10:18;;;;;;;7.43;6.72;;;;;;;14.62;100.00;100558.31;5009452;28;20026;-62
2023/07/23 02:12:43;;;;;;;8.05;7.28;;;;;;;14.60;100.00;100550.47;5009606;28;20072;-62
2023/07/23 02:15:09;;;;;;;9.73;7.07;;;;;;;14.60;100.00;100549.59;5009103;28;20018;-62
2023/07/23 02:17:35;;;;;;;8.80;7.90;;;;;;;14.61;100.00;100536.56;5009111;28;20596;-62
2023/07/23 02:20:00;;;;;;;11.77;8.10;;;;;;;14.63;100.00;100539.19;4990489;28;20023;-61
2023/07/23 02:22:26;;;;;;;10.15;7.88;;;;;;;14.64;100.00;100541.78;4990112;28;20471;-62
2023/07/23 02:24:52;;;;;;;12.38;7.43;;;;;;;14.66;100.00;100536.59;4997697;28;20033;-62
2023/07/23 02:27:17;;;;;;;9.27;6.82;;;;;;;14.68;100.00;100534.03;4995419;28;20026;-61
2023/07/23 02:29:42;;;;;;;8.20;6.63;;;;;;;14.68;100.00;100528.81;4989692;28;20046;-62
2023/07/23 02:32:09;;;;;;;7.50;6.25;;;;;;;14.72;100.00;100527.97;4989915;28;20029;-61
2023/07/23 02:34:34;;;;;;;8.60;6.97;;;;;;;14.74;100.00;100521.03;4989782;28;20050;-62
2023/07/23 02:37:00;;;;;;;10.20;5.97;;;;;;;14.73;100.00;100524.53;4989709;28;20077;-61
2023/07/23 02:39:25;;;;;;;7.50;6.72;;;;;;;14.73;100.00;100524.53;4989688;28;20026;-62
2023/07/23 02:41:50;;;;;;;10.13;6.53;;;;;;;14.76;100.00;100514.09;4989605;28;20034;-61
2023/07/23 02:44:16;;;;;;;7.30;5.53;;;;;;;14.77;100.00;100515.84;4989698;28;20026;-61
2023/07/23 02:46:41;;;;;;;8.05;6.22;;;;;;;14.80;100.00;100520.22;4989890;28;20298;-62
2023/07/23 02:49:06;;;;;;;10.35;6.40;;;;;;;14.80;100.00;100513.28;5008531;28;20701;-62
2023/07/23 02:51:32;;;;;;;7.68;6.13;;;;;;;14.83;100.00;100509.84;4994794;28;20038;-62
2023/07/23 02:53:57;;;;;;;7.05;6.10;;;;;;;14.84;100.00;100506.41;4991644;28;20087;-62
2023/07/23 02:56:23;;;;;;;6.10;5.03;;;;;;;14.86;100.00;100508.13;4998397;28;20034;-62
2023/07/23 02:58:48;;;;;;;8.73;4.80;;;;;;;14.88;100.00;100503.81;4991722;28;20609;-62
2023/07/23 03:01:13;;;;;;;7.28;4.55;;;;;;;14.92;100.00;100503.84;4997782;28;20712;-62
2023/07/23 03:03:39;;;;;;;7.15;4.90;;;;;;;14.96;100.00;100500.41;4992915;28;20560;-62
2023/07/23 03:06:08;;;;;;;5.68;4.53;;;;;;;14.97;100.00;100503.03;5008681;28;20416;-61
2023/07/23 03:08:34;;;;;;;4.85;4.22;;;;;;;14.99;100.00;100490.88;5008341;28;20092;-62
2023/07/23 03:10:59;;;;;;;6.90;4.90;;;;;;;15.03;100.00;100496.09;5008825;28;20029;-62
2023/07/23 03:13:25;;;;;;;8.32;4.65;;;;;;;15.06;100.00;100497.00;5008090;28;20532;-62
2023/07/23 03:15:50;;;;;;;5.45;4.43;;;;;;;15.09;100.00;100496.16;5006723;28;20050;-62
2023/07/23 03:18:15;;;;;;;6.22;4.22;;;;;;;15.13;100.00;100487.47;5007630;28;20044;-62
2023/07/23 03:20:41;;;;;;;6.72;4.28;;;;;;;15.18;100.00;100497.97;5008072;28;20030;-61
2023/07/23 03:23:07;;;;;;;5.38;4.35;;;;;;;15.21;100.00;100485.81;5007455;28;20470;-61
2023/07/23 03:25:32;;;;;;;5.10;4.60;;;;;;;15.25;100.00;100489.31;5008296;28;20032;-62
2023/07/23 03:27:59;;;;;;;6.20;4.40;;;;;;;15.27;100.00;100487.59;5007819;28;20049;-62
2023/07/23 03:30:25;;;;;;;5.95;4.95;;;;;;;15.30;100.00;100490.22;5007857;28;20076;-62
2023/07/23 03:32:52;;;;;;;7.50;4.50;;;;;;;15.31;100.00;100488.50;5007951;28;20137;-61
2023/07/23 03:35:19;;;;;;;7.90;4.22;;;;;;;15.34;100.00;100493.72;5007223;28;20060;-62
2023/07/23 03:37:44;;;;;;;4.65;3.55;;;;;;;15.34;100.00;100491.13;5007785;28;20053;-62
2023/07/23 03:40:10;;;;;;;5.20;3.70;;;;;;;15.35;100.00;100487.63;5007110;28;20057;-61
2023/07/23 03:42:35;;;;;;;5.55;4.03;;;;;;;15.36;100.00;100495.47;5007548;28;20120;-62
2023/07/23 03:45:00;;;;;;;4.53;3.70;;;;;;;15.35;100.00;100488.53;5007126;28;20398;-62
2023/07/23 03:47:25;;;;;;;5.15;3.70;;;;;;;15.38;100.00;100484.19;5007434;28;20393;-62
2023/07/23 03:49:51;;;;;;;4.45;3.25;;;;;;;15.38;100.00;100487.66;5006472;28;20547;-62
2023/07/23 03:52:16;;;;;;;6.63;3.80;;;;;;;15.37;100.00;100485.91;4993356;28;20022;-61
2023/07/23 03:54:41;;;;;;;5.78;3.65;;;;;;;15.38;100.00;100484.19;5006140;28;20105;-61
2023/07/23 03:57:07;;;;;;;4.50;3.75;;;;;;;15.39;100.00;100480.69;5002925;28;20029;-62
2023/07/23 03:59:38;;;;;;;7.28;4.28;;;;;;;15.38;100.00;100479.81;4995904;28;20032;-62
2023/07/23 04:02:04;;;;;;;4.18;3.72;;;;;;;15.41;100.00;100486.81;5004733;28;20363;-61
2023/07/23 04:04:30;;;;;;;4.82;3.30;;;;;;;15.42;100.00;100483.31;5005459;28;20022;-61
2023/07/23 04:06:55;;;;;;;4.50;3.75;;;;;;;15.43;100.00;100490.31;5006230;28;20018;-62
2023/07/23 04:09:20;;;;;;;6.07;3.63;;;;;;;15.43;100.00;100490.31;5007510;28;20041;-61
2023/07/23 04:11:46;;;;;;;4.78;3.58;;;;;;;15.44;100.00;100486.81;5007170;28;20084;-62
2023/07/23 04:14:12;;;;;;;4.35;3.75;;;;;;;15.45;100.00;100480.75;5007398;28;20482;-62
2023/07/23 04:16:37;;;;;;;5.60;3.85;;;;;;;15.47;100.00;100476.41;5007492;28;20026;-61
2023/07/23 04:19:02;;;;;;;5.03;3.60;;;;;;;15.46;100.00;100480.75;5007664;28;20429;-61
2023/07/23 04:21:27;;;;;;;5.30;3.40;;;;;;;15.47;100.00;100482.50;5006863;28;20022;-62
2023/07/23 04:23:55;;;;;;;5.00;3.30;;;;;;;15.50;100.00;100486.88;5008549;28;20088;-62
2023/07/23 04:26:25;;;;;;;3.63;3.22;;;;;;;15.52;100.00;100485.16;5008380;28;20434;-61
2023/07/23 04:28:51;;;;;;;6.32;3.63;;;;;;;15.54;100.00;100482.53;5011236;28;20026;-62
2023/07/23 04:31:16;;;;;;;5.25;3.38;;;;;;;15.56;100.00;100491.25;5009862;28;20033;-61
2023/07/23 04:33:41;;;;;;;4.28;3.70;;;;;;;15.58;100.00;100481.66;5010210;28;20056;-62
2023/07/23 04:36:07;;;;;;;3.72;2.97;;;;;;;15.58;100.00;100485.16;5010776;28;20025;-62
2023/07/23 04:38:34;;;;;;;4.15;2.83;;;;;;;15.61;100.00;100489.53;5010003;28;20486;-62
2023/07/23 04:40:59;;;;;;;6.75;3.42;;;;;;;15.62;100.00;100486.06;5010150;28;20105;-62
2023/07/23 04:43:24;;;;;;;5.60;3.25;;;;;;;15.64;100.00;100484.31;5010027;28;20140;-62
2023/07/23 04:45:49;;;;;;;4.43;3.20;;;;;;;15.66;100.00;100486.94;5009784;28;20060;-61
2023/07/23 04:48:16;;;;;;;3.80;3.35;;;;;;;15.67;100.00;100484.34;5008988;28;20470;-62
2023/07/23 04:50:42;;;;;;;3.33;3.03;;;;;;;15.71;100.00;100482.63;5006814;28;20390;-62
2023/07/23 04:53:07;;;;;;;4.40;3.25;;;;;;;15.71;100.00;100482.63;5004004;28;20030;-62
2023/07/23 04:55:33;;;;;;;4.82;4.10;;;;;;;15.74;100.00;100477.41;5004979;28;20029;-61
2023/07/23 04:57:58;;;;;;;3.97;2.92;;;;;;;15.73;100.00;100481.78;5006358;28;20036;-61
2023/07/23 05:00:24;;;;;;;3.45;2.53;;;;;;;15.76;100.00;100478.28;5005017;28;20018;-61
2023/07/23 05:02:49;;;;;;;3.35;3.00;;;;;;;15.79;100.00;100478.31;5005582;28;20398;-63
2023/07/23 05:05:15;;;;;;;5.28;3.20;;;;;;;15.82;100.00;100473.09;5004989;28;20030;-62
2023/07/23 05:07:40;;;;;;;4.68;2.90;;;;;;;15.85;100.00;100480.94;5005131;28;20021;-62
2023/07/23 05:10:06;;;;;;;4.35;3.15;;;;;;;15.86;100.00;100476.59;5005203;28;20083;-62
2023/07/23 05:12:32;;;;;;;3.35;2.90;;;;;;;15.88;100.00;100472.25;5005472;28;20426;-61
2023/07/23 05:15:11;;;;;;;5.82;2.85;;;;;;;15.88;100.00;100471.38;5004950;28;20097;-62
2023/07/23 05:17:36;;;;;;;4.85;3.15;;;;;;;15.89;100.00;100478.34;5002999;28;20041;-62
2023/07/23 05:20:02;;;;;;;4.20;2.95;;;;;;;15.91;100.00;100487.06;4998315;28;20018;-61
2023/07/23 05:22:28;;;;;;;4.20;2.72;;;;;;;15.89;100.00;100481.84;5003093;28;20412;-62
2023/07/23 05:24:54;;;;;;;5.18;2.90;;;;;;;15.91;100.00;100487.06;5007816;28;20033;-61
2023/07/23 05:27:19;;;;;;;4.43;3.20;;;;;;;15.91;100.00;100487.94;5010330;28;20021;-62
2023/07/23 05:29:44;;;;;;;5.65;3.17;;;;;;;15.92;100.00;100483.59;5010907;28;20440;-61
2023/07/23 05:32:09;;;;;;;5.22;2.53;;;;;;;15.89;100.00;100486.19;5009758;28;20025;-62
2023/07/23 05:34:35;;;;;;;4.63;2.80;;;;;;;15.89;100.00;100478.34;5003609;28;20026;-63
2023/07/23 05:37:00;;;;;;;3.35;2.95;;;;;;;15.89;100.00;100480.94;5003816;28;20027;-62
2023/07/23 05:39:25;;;;;;;3.20;2.83;;;;;;;15.89;100.00;100478.34;5001813;28;20069;-62
2023/07/23 05:41:51;;;;;;;4.20;2.63;;;;;;;15.84;100.00;100481.81;5001160;28;20033;-62
2023/07/23 05:44:17;;;;;;;5.35;3.15;;;;;;;15.85;100.00;100483.56;5000187;28;20053;-62
2023/07/23 05:46:42;;;;;;;4.82;3.20;;;;;;;15.88;100.00;100476.59;4994872;28;20046;-61
2023/07/23 05:49:08;;;;;;;6.72;3.17;;;;;;;15.87;100.00;100480.06;4999257;28;20512;-62
2023/07/23 05:51:33;;;;;;;4.20;2.88;;;;;;;15.85;100.00;100485.28;4994472;28;20034;-61
2023/07/23 05:53:58;;;;;;;5.43;3.28;;;;;;;15.84;100.00;100481.81;5003205;28;20023;-62
2023/07/23 05:56:23;;;;;;;3.30;2.85;;;;;;;15.84;100.00;100486.16;4990394;28;20069;-63
2023/07/23 05:58:49;;;;;;;5.10;3.60;;;;;;;15.81;100.00;100481.78;4990754;28;20092;-61
2023/07/23 06:01:14;;;;;;;3.65;3.13;;;;;;;15.79;100.00;100474.81;4990950;28;20030;-61
2023/07/23 06:03:40;;;;;;;4.82;2.90;;;;;;;15.80;100.00;100479.16;4992281;28;20109;-62
2023/07/23 06:06:05;;;;;;;4.10;2.80;;;;;;;15.75;100.00;100471.31;5010470;28;20038;-62
2023/07/23 06:08:31;;;;;;;3.90;3.03;;;;;;;15.73;100.00;100475.66;4998379;28;20021;-62
2023/07/23 06:10:56;;;;;;;3.72;2.90;;;;;;;15.75;100.00;100478.28;4992928;28;20223;-62
2023/07/23 06:13:21;;;;;;;5.07;3.05;;;;;;;15.76;100.00;100475.66;4996383;28;20025;-62
2023/07/23 06:15:47;;;;;;;7.97;3.30;;;;;;;15.79;100.00;100478.31;4993384;28;20018;-61
2023/07/23 06:18:12;;;;;;;4.00;3.00;;;;;;;15.83;100.00;100487.91;4997669;28;20041;-62
2023/07/23 06:20:37;;;;;;;3.40;3.05;;;;;;;15.77;100.00;100480.03;5001461;28;20489;-62
2023/07/23 06:23:02;;;;;;;7.80;3.60;;;;;;;15.73;100.00;100486.13;4996298;28;20017;-61
2023/07/23 06:25:28;;;;;;;5.55;3.40;;;;;;;15.71;100.00;100487.84;5002523;28;20034;-62
2023/07/23 06:27:53;;;;;;;3.38;3.08;;;;;;;15.65;100.00;100483.44;4991174;28;20113;-62
2023/07/23 06:30:18;;;;;;;4.65;3.13;;;;;;;15.63;100.00;100493.03;4989978;28;20030;-61
2023/07/23 06:32:44;;;;;;;4.82;3.67;;;;;;;15.53;100.00;100491.22;4989820;28;20033;-62
2023/07/23 06:35:10;;;;;;;4.07;3.17;;;;;;;15.52;100.00;100485.16;5000147;28;20088;-61
2023/07/23 06:37:37;;;;;;;6.45;3.70;;;;;;;15.55;100.00;100489.50;4994047;28;20100;-62
2023/07/23 06:40:03;;;;;;;6.35;3.55;;;;;;;15.51;100.00;100496.44;5002656;28;20421;-61
2023/07/23 06:42:28;;;;;;;4.60;3.30;;;;;;;15.51;100.00;100498.19;4994006;28;20026;-61
2023/07/23 06:44:53;;;;;;;3.90;3.60;;;;;;;15.55;100.00;100500.81;5002050;28;20115;-61
2023/07/23 06:47:19;;;;;;;4.88;3.55;;;;;;;15.57;100.00;100508.66;5005424;28;20104;-62
2023/07/23 06:49:45;;;;;;;4.80;3.05;;;;;;;15.56;100.00;100507.78;5008823;28;20076;-62
2023/07/23 06:52:10;;;;;;;4.97;3.15;;;;;;;15.65;100.00;100509.56;4992753;28;20034;-62
2023/07/23 06:54:40;;;;;;;5.32;3.45;;;;;;;15.70;100.00;100505.25;4989334;28;20026;-62
2023/07/23 06:57:06;;;;;;;4.63;3.43;;;;;;;15.69;100.00;100518.28;4995083;28;20081;-62
2023/07/23 06:59:32;;;;;;;4.72;3.05;;;;;;;15.72;100.00;100500.06;4992309;28;20062;-62
2023/07/23 07:01:57;;;;;;;6.78;4.07;;;;;;;15.68;100.00;100527.00;4988864;28;20034;-62
2023/07/23 07:04:22;;;;;;;3.90;3.50;;;;;;;15.53;100.00;100515.59;4987343;28;20034;-61
2023/07/23 07:06:47;;;;;;;6.18;4.00;;;;;;;15.50;100.00;100523.41;4989615;28;20316;-61
2023/07/23 07:09:13;;;;;;;4.75;4.13;;;;;;;15.30;100.00;100524.16;4987953;28;20022;-62
2023/07/23 07:11:38;;;;;;;5.85;4.10;;;;;;;15.26;100.00;100519.75;4991577;28;20097;-61
2023/07/23 07:14:04;;;;;;;6.15;4.13;;;;;;;15.26;100.00;100527.59;4987509;28;20029;-61
2023/07/23 07:16:29;;;;;;;5.55;4.22;;;;;;;15.17;100.00;100519.69;4992391;28;20068;-62
2023/07/23 07:18:54;;;;;;;5.30;4.25;;;;;;;15.23;100.00;100519.75;4990153;28;20031;-62
2023/07/23 07:21:20;;;;;;;6.93;4.82;;;;;;;15.15;100.00;100518.84;4991424;28;20026;-62
2023/07/23 07:23:45;;;;;;;5.13;4.25;;;;;;;15.09;100.00;100523.09;4990705;28;20130;-62
2023/07/23 07:26:11;;;;;;;6.07;4.60;;;;;;;14.96;100.00;100516.94;4987395;28;20050;-61
2023/07/23 07:28:36;;;;;;;5.35;4.25;;;;;;;14.84;100.00;100511.63;4989227;28;20034;-62
2023/07/23 07:31:03;;;;;;;6.18;5.57;;;;;;;14.85;100.00;100505.53;4987487;28;20393;-62
2023/07/23 07:33:29;;;;;;;6.28;5.03;;;;;;;14.75;100.00;100513.22;4990201;28;20046;-61
2023/07/23 07:35:56;;;;;;;8.73;4.97;;;;;;;14.78;100.00;100512.41;4998238;28;20715;-62
2023/07/23 07:38:21;;;;;;;8.73;5.53;;;;;;;14.78;100.00;100512.41;4995930;28;20356;-61
2023/07/23 07:40:48;;;;;;;6.18;4.75;;;;;;;14.80;100.00;100513.28;4996419;28;20029;-61
2023/07/23 07:43:13;;;;;;;9.95;5.45;;;;;;;14.86;100.00;100512.47;4996287;28;20496;-62
2023/07/23 07:45:39;;;;;;;6.95;4.80;;;;;;;14.90;100.00;100511.66;5002273;28;20034;-62
2023/07/23 07:48:04;;;;;;;5.28;4.78;;;;;;;14.89;100.00;100515.97;4998713;28;20054;-61
2023/07/23 07:50:30;;;;;;;6.43;5.47;;;;;;;14.99;100.00;100516.97;5003180;28;20060;-61
2023/07/23 07:52:55;;;;;;;6.97;5.45;;;;;;;15.00;100.00;100517.84;4993062;28;20163;-62
2023/07/23 07:55:20;;;;;;;7.65;4.97;;;;;;;15.04;100.00;100518.75;4998833;28;20052;-61
2023/07/23 07:57:46;;;;;;;8.90;4.95;;;;;;;15.10;100.00;100519.66;4998097;28;20034;-62
2023/07/23 08:00:12;;;;;;;7.78;5.72;;;;;;;15.12;100.00;100514.44;4993109;28;20019;-61
2023/07/23 08:02:38;;;;;;;6.32;5.25;;;;;;;15.20;100.00;100509.31;4998772;28;20030;-61
2023/07/23 08:05:03;;;;;;;5.40;4.78;;;;;;;15.15;100.00;100513.63;4998795;28;20121;-61
2023/07/23 08:07:30;;;;;;;6.40;5.63;;;;;;;15.19;100.00;100502.31;4995758;28;20034;-62
2023/07/23 08:09:59;;;;;;;8.70;5.88;;;;;;;15.19;100.00;100511.03;4998997;28;20589;-63
2023/07/23 08:12:24;;;;;;;6.25;5.35;;;;;;;15.16;100.00;100512.72;5002934;28;20032;-61
2023/07/23 08:14:52;;;;;;;7.90;5.60;;;;;;;15.16;100.00;100511.00;4996566;28;20023;-61
2023/07/23 08:17:18;;;;;;;6.43;5.28;;;;;;;15.20;100.00;100510.16;4991075;28;20405;-62
2023/07/23 08:19:43;;;;;;;6.07;4.47;;;;;;;15.20;100.00;100509.31;4995917;28;20035;-62
2023/07/23 08:22:09;;;;;;;5.38;4.80;;;;;;;15.19;100.00;100513.63;4994170;28;20437;-61
2023/07/23 08:24:35;;;;;;;5.00;4.50;;;;;;;15.23;100.00;100514.53;5000826;28;20026;-62
2023/07/23 08:27:03;;;;;;;4.95;4.25;;;;;;;15.30;100.00;100516.31;4988951;28;20149;-61
2023/07/23 08:29:33;;;;;;;4.40;3.88;;;;;;;15.32;100.00;100506.78;4996649;28;20027;-62
2023/07/23 08:31:59;;;;;;;4.43;3.70;;;;;;;15.29;100.00;100508.50;4986893;28;20514;-62
2023/07/23 08:34:26;;;;;;;4.35;3.92;;;;;;;15.41;100.00;100510.31;4996793;28;20289;-62
2023/07/23 08:36:51;;;;;;;3.95;3.58;;;;;;;15.33;100.00;100505.91;4998158;28;20048;-62
2023/07/23 08:39:17;;;;;;;4.70;3.90;;;;;;;15.36;100.00;100513.75;4999243;28;20041;-61
2023/07/23 08:42:06;;;;;;;6.53;3.70;;;;;;;15.35;100.00;100501.56;5001684;28;20026;-62
2023/07/23 08:44:59;;;;;;;3.70;2.60;;;;;;;15.39;100.00;100505.06;4993136;28;20030;-61
2023/07/23 08:47:26;;;;;;;4.53;3.30;;;;;;;15.36;100.00;100499.84;4990094;28;20053;-63
2023/07/23 08:49:52;;;;;;;3.45;3.15;;;;;;;15.43;100.00;100511.19;4992868;28;20026;-62
2023/07/23 08:52:19;;;;;;;3.75;3.42;;;;;;;15.32;100.00;100506.78;5001055;28;20026;-62
2023/07/23 08:54:46;;;;;;;3.45;2.92;;;;;;;15.42;100.00;100512.03;4993562;28;20050;-62
2023/07/23 08:57:11;;;;;;;3.88;3.45;;;;;;;15.53;100.00;100506.88;4998962;28;20037;-62
2023/07/23 08:59:39;;;;;;;3.38;3.08;;;;;;;15.61;100.00;100515.66;4998482;28;20037;-62
2023/07/23 09:02:07;;;;;;;3.25;2.95;;;;;;;15.61;100.00;100503.44;4995977;28;20022;-62
2023/07/23 09:04:33;;;;;;;3.22;2.92;;;;;;;15.67;100.00;100509.59;4985257;28;20029;-62
2023/07/23 09:07:01;;;;;;;4.18;3.20;;;;;;;15.64;100.00;100510.44;4999032;28;20029;-62
2023/07/23 09:09:26;;;;;;;2.83;2.53;;;;;;;15.69;100.00;100508.72;4986512;28;20026;-62
2023/07/23 09:11:52;;;;;;;2.60;2.40;;;;;;;15.64;100.00;100512.19;4990428;28;20520;-62
2023/07/23 09:14:18;;;;;;;3.65;3.30;;;;;;;15.70;100.00;100514.84;4994877;28;20540;-62
2023/07/23 09:16:45;;;;;;;3.45;3.15;;;;;;;15.66;100.00;100513.06;4996785;28;20108;-62
2023/07/23 09:19:20;;;;;;;3.10;2.80;;;;;;;15.61;100.00;100516.50;5001140;28;20036;-62
2023/07/23 09:21:46;;;;;;;3.08;2.63;;;;;;;15.56;100.00;100523.44;4997980;28;20044;-62
2023/07/23 09:24:14;;;;;;;3.85;2.80;;;;;;;15.67;100.00;100520.06;4999188;28;20026;-61
2023/07/23 09:26:40;;;;;;;3.22;2.47;;;;;;;15.68;100.00;100516.56;4993335;28;20030;-62
2023/07/23 09:29:11;;;;;;;3.15;2.65;;;;;;;15.66;100.00;100513.06;4988859;28;20030;-63
2023/07/23 09:31:45;;;;;;;3.33;2.65;;;;;;;15.64;100.00;100520.88;4998742;28;20030;-62
2023/07/23 09:34:11;;;;;;;3.00;2.67;;;;;;;15.66;100.00;100520.91;5004329;28;20029;-62
2023/07/23 09:36:36;;;;;;;3.40;2.65;;;;;;;15.71;100.00;100525.28;4997538;28;20501;-62
2023/07/23 09:39:06;;;;;;;5.95;2.78;;;;;;;15.60;100.00;100520.00;5002748;28;20034;-61
2023/07/23 09:41:33;;;;;;;3.28;2.40;;;;;;;15.64;100.00;100530.47;5000539;28;20052;-65
2023/07/23 09:44:01;;;;;;;3.08;2.78;;;;;;;15.54;100.00;100533.00;4999285;28;20076;-63
2023/07/23 09:46:27;;;;;;;3.40;2.72;;;;;;;15.57;100.00;100525.22;4995001;28;20444;-62
2023/07/23 09:48:52;;;;;;;2.72;2.53;;;;;;;15.50;100.00;100526.03;4996867;28;20474;-62
2023/07/23 09:51:18;;;;;;;3.50;3.00;;;;;;;15.54;100.00;100525.16;5004004;28;20025;-61
2023/07/23 09:53:46;;;;;;;3.08;2.72;;;;;;;15.56;100.00;100528.66;5003324;28;20107;-62
2023/07/23 09:56:13;;;;;;;3.35;2.78;;;;;;;15.61;100.00;100537.41;5002647;28;20439;-62
2023/07/23 09:58:40;;;;;;;3.35;3.05;;;;;;;15.67;100.00;100538.34;5000472;28;20218;-61
2023/07/23 10:01:07;;;;;;;5.25;2.72;;;;;;;15.66;100.00;100533.97;5005885;28;20034;-61
2023/07/23 10:03:33;;;;;;;4.68;3.20;;;;;;;15.69;100.00;100528.75;4998214;28;20716;-61
2023/07/23 10:05:59;;;;;;;3.05;2.75;;;;;;;15.59;100.00;100533.06;4998884;28;20038;-62
2023/07/23 10:08:27;;;;;;;3.67;2.95;;;;;;;15.56;100.00;100533.88;4998626;28;20053;-62
2023/07/23 10:10:52;;;;;;;2.70;2.50;;;;;;;15.56;100.00;100527.81;4996006;28;20022;-63
2023/07/23 10:13:17;;;;;;;2.97;2.60;;;;;;;15.59;100.00;100539.16;4992452;28;20393;-62
2023/07/23 10:15:44;;;;;;;3.20;2.80;;;;;;;15.52;100.00;100539.97;4994553;28;20034;-61
2023/07/23 10:18:12;;;;;;;3.42;2.42;;;;;;;15.50;100.00;100541.69;5002613;28;20053;-61
2023/07/23 10:20:38;;;;;;;3.58;2.80;;;;;;;15.55;100.00;100540.00;4995915;28;20030;-62
2023/07/23 10:23:05;;;;;;;3.65;2.65;;;;;;;15.59;100.00;100544.38;4994317;28;20427;-61
2023/07/23 10:25:32;;;;;;;2.80;2.53;;;;;;;15.53;100.00;100543.44;4995655;28;20041;-62
2023/07/23 10:28:08;;;;;;;2.70;2.50;;;;;;;15.50;100.00;100536.47;5004999;28;20057;-61
2023/07/23 10:30:36;;;;;;;2.85;2.55;;;;;;;15.50;100.00;100539.09;5002075;28;20114;-61
2023/07/23 10:33:10;;;;;;;2.40;2.20;;;;;;;15.51;100.00;100540.81;5004874;28;20044;-62
2023/07/23 10:35:58;;;;;;;2.55;2.35;;;;;;;15.61;100.00;100542.63;5001740;28;20034;-63
2023/07/23 10:38:27;;;;;;;2.97;2.60;;;;;;;15.64;100.00;100551.34;5000225;28;20084;-62
2023/07/23 10:40:53;;;;;;;2.55;2.35;;;;;;;15.65;100.00;100540.06;4995262;28;20054;-62
2023/07/23 10:43:19;;;;;;;2.50;2.30;;;;;;;15.64;100.00;100546.13;4998409;28;20068;-61
2023/07/23 10:45:48;;;;;;;2.65;2.45;;;;;;;15.59;100.00;100548.72;5000326;28;20038;-61
2023/07/23 10:48:17;;;;;;;2.78;2.35;;;;;;;15.66;100.00;100544.41;4990480;28;20926;-62
2023/07/23 10:51:00;;;;;;;4.28;2.85;;;;;;;15.65;100.00;100542.66;5000519;28;20174;-62
2023/07/23 10:53:30;;;;;;;2.72;2.53;;;;;;;15.61;100.00;100547.84;5002621;28;20025;-62
2023/07/23 10:55:59;;;;;;;2.30;2.10;;;;;;;15.61;100.00;100544.38;4994940;28;20048;-61
2023/07/23 10:58:26;;;;;;;4.22;2.63;;;;;;;15.63;100.00;100545.28;4997909;28;20026;-62
2023/07/23 11:00:55;;;;;;;3.25;2.95;;;;;;;15.67;100.00;100536.56;5002247;28;20359;-62
2023/07/23 11:03:22;;;;;;;2.97;2.72;;;;;;;15.74;100.00;100542.69;5007890;28;20018;-62
2023/07/23 11:05:47;;;;;;;3.65;3.25;;;;;;;15.82;100.00;100542.75;5000864;28;20030;-61
2023/07/23 11:08:17;;;;;;;3.95;3.55;;;;;;;15.85;100.00;100541.03;4998278;28;20026;-61
2023/07/23 11:10:49;;;;;;;4.30;3.35;;;;;;;15.85;100.00;100546.25;5008416;28;20028;-61
2023/07/23 11:13:18;;;;;;;3.70;3.17;;;;;;;15.91;100.00;100544.53;5007378;28;20091;-61